sensor_id;sensor_type;location;lat;lon;timestamp;P1;durP1;ratioP1;P2;durP2;ratioP2
58697;SDS011;44475;53.206;-6.106;2023-03-31T00:01:33;19.70;;;3.47;;
58697;SDS011;44475;53.206;-6.106;2023-03-31T00:04:00;20.08;;;3.10;;
58697;SDS011;44475;53.206;-6.106;2023-03-31T00:06:30;14.27;;;3.15;;
58697;SDS011;44475;53.206;-6.106;2023-03-31T00:09:03;13.98;;;3.33;;
58697;SDS011;44475;53.206;-6.106;2023-03-31T00:11:30;9.05;;;2.60;;
58697;SDS011;44475;53.206;-6.106;2023-03-31T00:13:56;12.52;;;2.90;;
58697;SDS011;44475;53.206;-6.106;2023-03-31T00:16:23;10.77;;;2.60;;
58697;SDS011;44475;53.206;-6.106;2023-03-31T00:18:49;10.38;;;2.50;;
58697;SDS011;44475;53.206;-6.106;2023-03-31T00:21:17;9.90;;;2.58;;
58697;SDS011;44475;53.206;-6.106;2023-03-31T00:24:05;8.15;;;2.50;;
58697;SDS011;44475;53.206;-6.106;2023-03-31T00:26:32;7.80;;;2.47;;
58697;SDS011;44475;53.206;-6.106;2023-03-31T00:29:01;11.68;;;2.55;;
58697;SDS011;44475;53.206;-6.106;2023-03-31T00:31:30;8.88;;;2.42;;
58697;SDS011;44475;53.206;-6.106;2023-03-31T00:33:57;9.68;;;2.50;;
58697;SDS011;44475;53.206;-6.106;2023-03-31T00:36:23;10.23;;;2.63;;
58697;SDS011;44475;53.206;-6.106;2023-03-31T00:38:54;6.88;;;2.55;;
58697;SDS011;44475;53.206;-6.106;2023-03-31T00:41:23;12.93;;;2.50;;
58697;SDS011;44475;53.206;-6.106;2023-03-31T00:49:23;10.50;;;2.53;;
58697;SDS011;44475;53.206;-6.106;2023-03-31T00:51:58;7.05;;;2.30;;
58697;SDS011;44475;53.206;-6.106;2023-03-31T00:54:30;7.13;;;2.30;;
58697;SDS011;44475;53.206;-6.106;2023-03-31T00:56:58;4.65;;;1.98;;
58697;SDS011;44475;53.206;-6.106;2023-03-31T00:59:28;6.80;;;2.28;;
58697;SDS011;44475;53.206;-6.106;2023-03-31T01:01:56;6.15;;;2.17;;
58697;SDS011;44475;53.206;-6.106;2023-03-31T01:04:28;6.25;;;2.20;;
58697;SDS011;44475;53.206;-6.106;2023-03-31T01:09:47;7.07;;;2.47;;
58697;SDS011;44475;53.206;-6.106;2023-03-31T01:12:15;6.32;;;2.20;;
58697;SDS011;44475;53.206;-6.106;2023-03-31T01:14:43;5.13;;;2.20;;
58697;SDS011;44475;53.206;-6.106;2023-03-31T01:17:10;6.68;;;2.20;;
58697;SDS011;44475;53.206;-6.106;2023-03-31T01:34:44;5.80;;;2.00;;
58697;SDS011;44475;53.206;-6.106;2023-03-31T01:43:51;4.65;;;1.83;;
58697;SDS011;44475;53.206;-6.106;2023-03-31T01:49:09;6.28;;;2.05;;
58697;SDS011;44475;53.206;-6.106;2023-03-31T01:54:46;5.45;;;2.10;;
58697;SDS011;44475;53.206;-6.106;2023-03-31T02:00:04;5.05;;;2.20;;
58697;SDS011;44475;53.206;-6.106;2023-03-31T02:05:22;4.18;;;1.70;;
58697;SDS011;44475;53.206;-6.106;2023-03-31T02:07:52;5.78;;;1.80;;
58697;SDS011;44475;53.206;-6.106;2023-03-31T02:10:28;4.57;;;1.80;;
58697;SDS011;44475;53.206;-6.106;2023-03-31T02:12:56;4.18;;;1.70;;
58697;SDS011;44475;53.206;-6.106;2023-03-31T02:15:26;5.18;;;1.88;;
58697;SDS011;44475;53.206;-6.106;2023-03-31T02:18:00;3.92;;;1.73;;
58697;SDS011;44475;53.206;-6.106;2023-03-31T02:20:35;4.85;;;1.80;;
58697;SDS011;44475;53.206;-6.106;2023-03-31T02:23:06;4.63;;;1.70;;
58697;SDS011;44475;53.206;-6.106;2023-03-31T02:25:41;4.50;;;1.98;;
58697;SDS011;44475;53.206;-6.106;2023-03-31T02:28:20;5.00;;;1.65;;
58697;SDS011;44475;53.206;-6.106;2023-03-31T02:30:56;5.38;;;1.85;;
58697;SDS011;44475;53.206;-6.106;2023-03-31T02:33:43;4.72;;;1.90;;
58697;SDS011;44475;53.206;-6.106;2023-03-31T02:36:09;6.40;;;1.90;;
58697;SDS011;44475;53.206;-6.106;2023-03-31T02:38:37;5.28;;;1.80;;
58697;SDS011;44475;53.206;-6.106;2023-03-31T02:41:09;4.13;;;1.70;;
58697;SDS011;44475;53.206;-6.106;2023-03-31T02:43:35;5.45;;;1.88;;
58697;SDS011;44475;53.206;-6.106;2023-03-31T02:46:02;5.82;;;1.80;;
58697;SDS011;44475;53.206;-6.106;2023-03-31T02:48:33;5.30;;;1.92;;
58697;SDS011;44475;53.206;-6.106;2023-03-31T02:57:08;4.30;;;1.85;;
58697;SDS011;44475;53.206;-6.106;2023-03-31T03:04:58;4.93;;;1.98;;
58697;SDS011;44475;53.206;-6.106;2023-03-31T03:10:23;3.55;;;1.60;;
58697;SDS011;44475;53.206;-6.106;2023-03-31T03:13:02;5.40;;;1.63;;
58697;SDS011;44475;53.206;-6.106;2023-03-31T03:15:32;3.90;;;1.70;;
58697;SDS011;44475;53.206;-6.106;2023-03-31T03:18:07;3.85;;;1.80;;
58697;SDS011;44475;53.206;-6.106;2023-03-31T03:20:33;3.55;;;1.48;;
58697;SDS011;44475;53.206;-6.106;2023-03-31T03:23:00;4.07;;;1.80;;
58697;SDS011;44475;53.206;-6.106;2023-03-31T03:25:26;5.25;;;1.90;;
58697;SDS011;44475;53.206;-6.106;2023-03-31T03:27:54;4.22;;;1.70;;
58697;SDS011;44475;53.206;-6.106;2023-03-31T03:30:20;5.60;;;1.90;;
58697;SDS011;44475;53.206;-6.106;2023-03-31T03:32:47;4.55;;;1.60;;
58697;SDS011;44475;53.206;-6.106;2023-03-31T03:35:14;3.72;;;1.75;;
58697;SDS011;44475;53.206;-6.106;2023-03-31T03:37:40;4.63;;;1.70;;
58697;SDS011;44475;53.206;-6.106;2023-03-31T03:40:07;4.55;;;1.70;;
58697;SDS011;44475;53.206;-6.106;2023-03-31T03:42:34;3.30;;;1.70;;
58697;SDS011;44475;53.206;-6.106;2023-03-31T03:45:02;5.15;;;1.70;;
58697;SDS011;44475;53.206;-6.106;2023-03-31T03:47:29;4.03;;;1.70;;
58697;SDS011;44475;53.206;-6.106;2023-03-31T03:49:55;4.05;;;1.50;;
58697;SDS011;44475;53.206;-6.106;2023-03-31T03:52:21;4.45;;;1.70;;
58697;SDS011;44475;53.206;-6.106;2023-03-31T03:54:47;5.28;;;1.88;;
58697;SDS011;44475;53.206;-6.106;2023-03-31T03:57:14;4.03;;;1.75;;
58697;SDS011;44475;53.206;-6.106;2023-03-31T03:59:40;5.38;;;2.00;;
58697;SDS011;44475;53.206;-6.106;2023-03-31T04:02:06;4.25;;;1.70;;
58697;SDS011;44475;53.206;-6.106;2023-03-31T04:04:33;3.30;;;1.75;;
58697;SDS011;44475;53.206;-6.106;2023-03-31T04:06:59;4.53;;;1.80;;
58697;SDS011;44475;53.206;-6.106;2023-03-31T04:09:25;2.88;;;1.50;;
58697;SDS011;44475;53.206;-6.106;2023-03-31T04:11:52;4.50;;;1.85;;
58697;SDS011;44475;53.206;-6.106;2023-03-31T04:14:18;3.22;;;1.50;;
58697;SDS011;44475;53.206;-6.106;2023-03-31T04:16:47;5.13;;;1.95;;
58697;SDS011;44475;53.206;-6.106;2023-03-31T04:19:14;3.80;;;1.65;;
58697;SDS011;44475;53.206;-6.106;2023-03-31T04:21:45;3.47;;;1.80;;
58697;SDS011;44475;53.206;-6.106;2023-03-31T04:24:14;3.60;;;1.63;;
58697;SDS011;44475;53.206;-6.106;2023-03-31T04:26:45;4.75;;;1.88;;
58697;SDS011;44475;53.206;-6.106;2023-03-31T04:29:14;3.50;;;1.60;;
58697;SDS011;44475;53.206;-6.106;2023-03-31T04:31:41;3.40;;;1.63;;
58697;SDS011;44475;53.206;-6.106;2023-03-31T04:34:12;4.50;;;1.60;;
58697;SDS011;44475;53.206;-6.106;2023-03-31T04:36:40;3.58;;;1.60;;
58697;SDS011;44475;53.206;-6.106;2023-03-31T04:39:20;4.00;;;1.60;;
58697;SDS011;44475;53.206;-6.106;2023-03-31T04:41:55;3.78;;;1.70;;
58697;SDS011;44475;53.206;-6.106;2023-03-31T04:44:24;3.92;;;1.80;;
58697;SDS011;44475;53.206;-6.106;2023-03-31T04:46:51;3.70;;;1.80;;
58697;SDS011;44475;53.206;-6.106;2023-03-31T04:49:18;3.83;;;1.90;;
58697;SDS011;44475;53.206;-6.106;2023-03-31T04:51:44;4.25;;;1.77;;
58697;SDS011;44475;53.206;-6.106;2023-03-31T04:54:11;3.70;;;1.60;;
58697;SDS011;44475;53.206;-6.106;2023-03-31T04:56:37;3.88;;;1.80;;
58697;SDS011;44475;53.206;-6.106;2023-03-31T04:59:04;4.57;;;1.80;;
58697;SDS011;44475;53.206;-6.106;2023-03-31T05:01:32;3.55;;;1.75;;
58697;SDS011;44475;53.206;-6.106;2023-03-31T05:04:00;3.63;;;1.52;;
58697;SDS011;44475;53.206;-6.106;2023-03-31T05:06:27;4.50;;;1.70;;
58697;SDS011;44475;53.206;-6.106;2023-03-31T05:08:54;2.95;;;1.45;;
58697;SDS011;44475;53.206;-6.106;2023-03-31T05:11:20;3.30;;;1.65;;
58697;SDS011;44475;53.206;-6.106;2023-03-31T05:13:47;4.15;;;1.90;;
58697;SDS011;44475;53.206;-6.106;2023-03-31T05:16:13;5.55;;;1.73;;
58697;SDS011;44475;53.206;-6.106;2023-03-31T05:18:40;4.93;;;1.67;;
58697;SDS011;44475;53.206;-6.106;2023-03-31T05:21:07;4.60;;;1.70;;
58697;SDS011;44475;53.206;-6.106;2023-03-31T05:23:35;3.97;;;1.77;;
58697;SDS011;44475;53.206;-6.106;2023-03-31T05:26:01;2.85;;;1.60;;
58697;SDS011;44475;53.206;-6.106;2023-03-31T05:28:27;4.90;;;1.60;;
58697;SDS011;44475;53.206;-6.106;2023-03-31T05:30:53;3.95;;;1.60;;
58697;SDS011;44475;53.206;-6.106;2023-03-31T05:33:22;4.97;;;1.73;;
58697;SDS011;44475;53.206;-6.106;2023-03-31T05:35:49;4.60;;;1.65;;
58697;SDS011;44475;53.206;-6.106;2023-03-31T05:38:15;5.05;;;1.90;;
58697;SDS011;44475;53.206;-6.106;2023-03-31T05:40:41;4.10;;;1.60;;
58697;SDS011;44475;53.206;-6.106;2023-03-31T05:43:07;3.20;;;1.65;;
58697;SDS011;44475;53.206;-6.106;2023-03-31T05:45:33;3.95;;;1.80;;
58697;SDS011;44475;53.206;-6.106;2023-03-31T05:48:00;3.75;;;1.70;;
58697;SDS011;44475;53.206;-6.106;2023-03-31T05:50:26;3.58;;;1.70;;
58697;SDS011;44475;53.206;-6.106;2023-03-31T05:52:53;4.30;;;1.73;;
58697;SDS011;44475;53.206;-6.106;2023-03-31T05:55:19;4.45;;;1.75;;
58697;SDS011;44475;53.206;-6.106;2023-03-31T05:57:45;3.20;;;1.55;;
58697;SDS011;44475;53.206;-6.106;2023-03-31T06:00:11;4.15;;;1.60;;
58697;SDS011;44475;53.206;-6.106;2023-03-31T06:02:38;4.90;;;1.60;;
58697;SDS011;44475;53.206;-6.106;2023-03-31T06:05:05;4.47;;;1.80;;
58697;SDS011;44475;53.206;-6.106;2023-03-31T06:07:32;3.10;;;1.50;;
58697;SDS011;44475;53.206;-6.106;2023-03-31T06:09:58;4.85;;;1.65;;
58697;SDS011;44475;53.206;-6.106;2023-03-31T06:12:24;4.57;;;1.85;;
58697;SDS011;44475;53.206;-6.106;2023-03-31T06:14:51;3.95;;;1.65;;
58697;SDS011;44475;53.206;-6.106;2023-03-31T06:17:17;3.08;;;1.48;;
58697;SDS011;44475;53.206;-6.106;2023-03-31T06:19:43;3.67;;;1.60;;
58697;SDS011;44475;53.206;-6.106;2023-03-31T06:22:09;6.22;;;1.70;;
58697;SDS011;44475;53.206;-6.106;2023-03-31T06:24:36;3.65;;;1.60;;
58697;SDS011;44475;53.206;-6.106;2023-03-31T06:27:02;3.90;;;1.60;;
58697;SDS011;44475;53.206;-6.106;2023-03-31T06:29:30;4.47;;;1.60;;
58697;SDS011;44475;53.206;-6.106;2023-03-31T06:31:56;4.10;;;1.63;;
58697;SDS011;44475;53.206;-6.106;2023-03-31T06:34:22;3.63;;;1.42;;
58697;SDS011;44475;53.206;-6.106;2023-03-31T06:36:49;4.00;;;1.77;;
58697;SDS011;44475;53.206;-6.106;2023-03-31T06:39:15;2.92;;;1.60;;
58697;SDS011;44475;53.206;-6.106;2023-03-31T06:41:42;5.57;;;1.60;;
58697;SDS011;44475;53.206;-6.106;2023-03-31T06:44:08;3.33;;;1.52;;
58697;SDS011;44475;53.206;-6.106;2023-03-31T06:46:35;3.53;;;1.52;;
58697;SDS011;44475;53.206;-6.106;2023-03-31T06:49:01;3.72;;;1.55;;
58697;SDS011;44475;53.206;-6.106;2023-03-31T06:51:27;3.30;;;1.67;;
58697;SDS011;44475;53.206;-6.106;2023-03-31T06:53:54;4.47;;;1.63;;
58697;SDS011;44475;53.206;-6.106;2023-03-31T06:56:20;3.40;;;1.60;;
58697;SDS011;44475;53.206;-6.106;2023-03-31T06:58:46;4.10;;;1.67;;
58697;SDS011;44475;53.206;-6.106;2023-03-31T07:01:12;2.92;;;1.58;;
58697;SDS011;44475;53.206;-6.106;2023-03-31T07:03:39;4.28;;;1.45;;
58697;SDS011;44475;53.206;-6.106;2023-03-31T07:06:05;4.70;;;1.92;;
58697;SDS011;44475;53.206;-6.106;2023-03-31T07:08:31;4.00;;;1.50;;
58697;SDS011;44475;53.206;-6.106;2023-03-31T07:10:58;4.10;;;1.70;;
58697;SDS011;44475;53.206;-6.106;2023-03-31T07:13:25;4.10;;;1.63;;
58697;SDS011;44475;53.206;-6.106;2023-03-31T07:15:52;4.95;;;1.83;;
58697;SDS011;44475;53.206;-6.106;2023-03-31T07:18:19;4.00;;;1.55;;
58697;SDS011;44475;53.206;-6.106;2023-03-31T07:20:49;3.80;;;1.80;;
58697;SDS011;44475;53.206;-6.106;2023-03-31T07:23:15;3.72;;;1.70;;
58697;SDS011;44475;53.206;-6.106;2023-03-31T07:25:42;3.15;;;1.58;;
58697;SDS011;44475;53.206;-6.106;2023-03-31T07:28:10;3.47;;;1.60;;
58697;SDS011;44475;53.206;-6.106;2023-03-31T07:30:36;3.33;;;1.55;;
58697;SDS011;44475;53.206;-6.106;2023-03-31T07:33:04;4.30;;;1.77;;
58697;SDS011;44475;53.206;-6.106;2023-03-31T07:35:30;4.15;;;1.88;;
58697;SDS011;44475;53.206;-6.106;2023-03-31T07:37:57;3.60;;;1.70;;
58697;SDS011;44475;53.206;-6.106;2023-03-31T07:40:24;2.50;;;1.48;;
58697;SDS011;44475;53.206;-6.106;2023-03-31T07:42:52;3.92;;;1.73;;
58697;SDS011;44475;53.206;-6.106;2023-03-31T07:45:20;3.45;;;1.60;;
58697;SDS011;44475;53.206;-6.106;2023-03-31T07:47:48;3.15;;;1.52;;
58697;SDS011;44475;53.206;-6.106;2023-03-31T07:50:14;3.42;;;1.73;;
58697;SDS011;44475;53.206;-6.106;2023-03-31T07:52:41;4.95;;;1.75;;
58697;SDS011;44475;53.206;-6.106;2023-03-31T07:55:08;7.95;;;1.90;;
58697;SDS011;44475;53.206;-6.106;2023-03-31T07:57:35;10.75;;;2.03;;
58697;SDS011;44475;53.206;-6.106;2023-03-31T08:00:03;17.95;;;2.38;;
58697;SDS011;44475;53.206;-6.106;2023-03-31T08:02:37;14.35;;;2.55;;
58697;SDS011;44475;53.206;-6.106;2023-03-31T08:05:05;13.27;;;2.40;;
58697;SDS011;44475;53.206;-6.106;2023-03-31T08:07:33;21.08;;;2.50;;
58697;SDS011;44475;53.206;-6.106;2023-03-31T08:10:01;21.67;;;2.92;;
58697;SDS011;44475;53.206;-6.106;2023-03-31T08:12:29;20.15;;;2.50;;
58697;SDS011;44475;53.206;-6.106;2023-03-31T08:14:55;21.08;;;3.25;;
58697;SDS011;44475;53.206;-6.106;2023-03-31T08:17:21;10.35;;;2.20;;
58697;SDS011;44475;53.206;-6.106;2023-03-31T08:19:47;16.33;;;2.97;;
58697;SDS011;44475;53.206;-6.106;2023-03-31T08:22:15;19.42;;;2.40;;
58697;SDS011;44475;53.206;-6.106;2023-03-31T08:24:42;16.90;;;2.70;;
58697;SDS011;44475;53.206;-6.106;2023-03-31T08:27:08;14.80;;;2.70;;
58697;SDS011;44475;53.206;-6.106;2023-03-31T08:29:34;19.13;;;2.80;;
58697;SDS011;44475;53.206;-6.106;2023-03-31T08:32:01;22.50;;;2.70;;
58697;SDS011;44475;53.206;-6.106;2023-03-31T08:34:27;37.55;;;4.28;;
58697;SDS011;44475;53.206;-6.106;2023-03-31T08:36:53;63.05;;;5.38;;
58697;SDS011;44475;53.206;-6.106;2023-03-31T08:39:20;41.65;;;5.00;;
58697;SDS011;44475;53.206;-6.106;2023-03-31T08:41:57;48.53;;;5.25;;
58697;SDS011;44475;53.206;-6.106;2023-03-31T08:47:23;66.10;;;6.18;;
58697;SDS011;44475;53.206;-6.106;2023-03-31T08:49:53;83.22;;;7.07;;
58697;SDS011;44475;53.206;-6.106;2023-03-31T08:52:32;76.03;;;7.00;;
58697;SDS011;44475;53.206;-6.106;2023-03-31T08:55:04;66.68;;;7.22;;
58697;SDS011;44475;53.206;-6.106;2023-03-31T08:57:42;88.38;;;7.80;;
58697;SDS011;44475;53.206;-6.106;2023-03-31T09:00:24;71.32;;;8.00;;
58697;SDS011;44475;53.206;-6.106;2023-03-31T09:03:04;84.43;;;8.95;;
58697;SDS011;44475;53.206;-6.106;2023-03-31T09:05:47;67.60;;;7.13;;
58697;SDS011;44475;53.206;-6.106;2023-03-31T09:08:38;60.42;;;7.35;;
58697;SDS011;44475;53.206;-6.106;2023-03-31T09:14:17;77.57;;;8.27;;
58697;SDS011;44475;53.206;-6.106;2023-03-31T09:17:20;71.13;;;8.18;;
58697;SDS011;44475;53.206;-6.106;2023-03-31T09:22:32;72.82;;;7.75;;
58697;SDS011;44475;53.206;-6.106;2023-03-31T09:25:12;92.40;;;9.02;;
58697;SDS011;44475;53.206;-6.106;2023-03-31T09:27:44;103.68;;;10.15;;
58697;SDS011;44475;53.206;-6.106;2023-03-31T09:30:14;76.28;;;9.57;;
58697;SDS011;44475;53.206;-6.106;2023-03-31T09:32:46;61.13;;;8.20;;
58697;SDS011;44475;53.206;-6.106;2023-03-31T09:37:42;56.97;;;7.10;;
58697;SDS011;44475;53.206;-6.106;2023-03-31T09:40:12;61.88;;;7.68;;
58697;SDS011;44475;53.206;-6.106;2023-03-31T09:42:42;60.28;;;6.25;;
58697;SDS011;44475;53.206;-6.106;2023-03-31T09:45:16;72.20;;;7.40;;
58697;SDS011;44475;53.206;-6.106;2023-03-31T09:47:45;60.60;;;6.47;;
58697;SDS011;44475;53.206;-6.106;2023-03-31T09:50:16;44.45;;;7.00;;
58697;SDS011;44475;53.206;-6.106;2023-03-31T09:52:43;53.00;;;7.53;;
58697;SDS011;44475;53.206;-6.106;2023-03-31T09:55:24;53.92;;;8.00;;
58697;SDS011;44475;53.206;-6.106;2023-03-31T09:58:15;43.95;;;6.75;;
58697;SDS011;44475;53.206;-6.106;2023-03-31T10:00:42;52.75;;;7.22;;
58697;SDS011;44475;53.206;-6.106;2023-03-31T10:03:21;54.10;;;7.10;;
58697;SDS011;44475;53.206;-6.106;2023-03-31T10:05:49;49.88;;;6.70;;
58697;SDS011;44475;53.206;-6.106;2023-03-31T10:11:14;40.35;;;6.10;;
58697;SDS011;44475;53.206;-6.106;2023-03-31T10:13:44;45.63;;;6.32;;
58697;SDS011;44475;53.206;-6.106;2023-03-31T10:18:52;35.42;;;6.32;;
58697;SDS011;44475;53.206;-6.106;2023-03-31T10:21:23;40.50;;;6.65;;
58697;SDS011;44475;53.206;-6.106;2023-03-31T10:23:51;38.28;;;6.93;;
58697;SDS011;44475;53.206;-6.106;2023-03-31T10:26:20;39.67;;;5.95;;
58697;SDS011;44475;53.206;-6.106;2023-03-31T10:28:50;32.70;;;5.72;;
58697;SDS011;44475;53.206;-6.106;2023-03-31T10:31:19;37.65;;;6.45;;
58697;SDS011;44475;53.206;-6.106;2023-03-31T10:33:50;36.53;;;4.95;;
58697;SDS011;44475;53.206;-6.106;2023-03-31T10:36:26;34.85;;;5.60;;
58697;SDS011;44475;53.206;-6.106;2023-03-31T10:38:54;30.45;;;5.47;;
58697;SDS011;44475;53.206;-6.106;2023-03-31T10:41:24;38.83;;;5.85;;
58697;SDS011;44475;53.206;-6.106;2023-03-31T10:43:53;42.50;;;6.32;;
58697;SDS011;44475;53.206;-6.106;2023-03-31T10:47:15;45.38;;;5.97;;
58697;SDS011;44475;53.206;-6.106;2023-03-31T10:49:15;27.95;;;5.47;;
58697;SDS011;44475;53.206;-6.106;2023-03-31T10:51:48;27.40;;;5.05;;
58697;SDS011;44475;53.206;-6.106;2023-03-31T10:54:19;28.63;;;5.50;;
58697;SDS011;44475;53.206;-6.106;2023-03-31T10:56:46;25.30;;;4.55;;
58697;SDS011;44475;53.206;-6.106;2023-03-31T11:08:00;35.67;;;5.50;;
58697;SDS011;44475;53.206;-6.106;2023-03-31T11:11:04;50.17;;;5.97;;
58697;SDS011;44475;53.206;-6.106;2023-03-31T11:33:12;62.92;;;7.10;;
58697;SDS011;44475;53.206;-6.106;2023-03-31T11:35:47;53.63;;;7.00;;
58697;SDS011;44475;53.206;-6.106;2023-03-31T11:43:43;55.67;;;6.93;;
58697;SDS011;44475;53.206;-6.106;2023-03-31T11:49:19;47.78;;;6.10;;
58697;SDS011;44475;53.206;-6.106;2023-03-31T11:51:51;49.00;;;6.93;;
58697;SDS011;44475;53.206;-6.106;2023-03-31T11:56:59;48.92;;;6.93;;
58697;SDS011;44475;53.206;-6.106;2023-03-31T11:59:33;66.53;;;7.15;;
58697;SDS011;44475;53.206;-6.106;2023-03-31T12:04:37;45.25;;;6.40;;
58697;SDS011;44475;53.206;-6.106;2023-03-31T12:12:31;32.15;;;4.60;;
58697;SDS011;44475;53.206;-6.106;2023-03-31T12:15:20;21.65;;;3.95;;
58697;SDS011;44475;53.206;-6.106;2023-03-31T12:17:59;26.08;;;4.28;;
58697;SDS011;44475;53.206;-6.106;2023-03-31T12:20:38;25.23;;;4.95;;
58697;SDS011;44475;53.206;-6.106;2023-03-31T12:23:16;22.27;;;4.70;;
58697;SDS011;44475;53.206;-6.106;2023-03-31T12:25:50;23.08;;;4.55;;
58697;SDS011;44475;53.206;-6.106;2023-03-31T12:28:31;26.92;;;4.55;;
58697;SDS011;44475;53.206;-6.106;2023-03-31T12:31:02;28.80;;;4.90;;
58697;SDS011;44475;53.206;-6.106;2023-03-31T12:33:34;29.42;;;4.55;;
58697;SDS011;44475;53.206;-6.106;2023-03-31T12:41:23;26.35;;;4.85;;
58697;SDS011;44475;53.206;-6.106;2023-03-31T12:50:01;21.88;;;4.65;;
58697;SDS011;44475;53.206;-6.106;2023-03-31T12:53:07;24.85;;;4.50;;
58697;SDS011;44475;53.206;-6.106;2023-03-31T12:55:53;25.05;;;4.60;;
58697;SDS011;44475;53.206;-6.106;2023-03-31T13:01:00;24.60;;;4.40;;
58697;SDS011;44475;53.206;-6.106;2023-03-31T13:08:58;17.50;;;3.95;;
58697;SDS011;44475;53.206;-6.106;2023-03-31T13:16:51;18.75;;;4.55;;
58697;SDS011;44475;53.206;-6.106;2023-03-31T13:19:35;21.30;;;4.45;;
58697;SDS011;44475;53.206;-6.106;2023-03-31T13:22:04;16.20;;;3.80;;
58697;SDS011;44475;53.206;-6.106;2023-03-31T13:24:31;14.98;;;3.65;;
58697;SDS011;44475;53.206;-6.106;2023-03-31T13:27:23;19.77;;;3.80;;
58697;SDS011;44475;53.206;-6.106;2023-03-31T13:29:52;14.90;;;3.67;;
58697;SDS011;44475;53.206;-6.106;2023-03-31T13:32:22;16.58;;;3.60;;
58697;SDS011;44475;53.206;-6.106;2023-03-31T13:34:55;17.20;;;3.97;;
58697;SDS011;44475;53.206;-6.106;2023-03-31T13:40:45;17.92;;;3.60;;
58697;SDS011;44475;53.206;-6.106;2023-03-31T13:46:15;13.50;;;3.35;;
58697;SDS011;44475;53.206;-6.106;2023-03-31T13:51:36;12.50;;;3.17;;
58697;SDS011;44475;53.206;-6.106;2023-03-31T13:57:23;13.68;;;3.28;;
58697;SDS011;44475;53.206;-6.106;2023-03-31T14:08:18;12.52;;;3.00;;
58697;SDS011;44475;53.206;-6.106;2023-03-31T14:11:17;12.80;;;3.10;;
58697;SDS011;44475;53.206;-6.106;2023-03-31T14:14:00;9.48;;;3.50;;
58697;SDS011;44475;53.206;-6.106;2023-03-31T14:16:37;8.38;;;2.97;;
58697;SDS011;44475;53.206;-6.106;2023-03-31T14:35:07;11.02;;;2.90;;
58697;SDS011;44475;53.206;-6.106;2023-03-31T14:37:53;9.25;;;2.95;;
58697;SDS011;44475;53.206;-6.106;2023-03-31T14:40:21;10.32;;;2.80;;
58697;SDS011;44475;53.206;-6.106;2023-03-31T14:42:48;11.18;;;2.78;;
58697;SDS011;44475;53.206;-6.106;2023-03-31T14:45:21;13.35;;;2.95;;
58697;SDS011;44475;53.206;-6.106;2023-03-31T14:47:53;11.07;;;3.03;;
58697;SDS011;44475;53.206;-6.106;2023-03-31T14:50:21;8.85;;;2.92;;
58697;SDS011;44475;53.206;-6.106;2023-03-31T14:52:52;15.40;;;3.00;;
58697;SDS011;44475;53.206;-6.106;2023-03-31T14:55:23;9.10;;;2.60;;
58697;SDS011;44475;53.206;-6.106;2023-03-31T14:57:53;12.93;;;2.80;;
58697;SDS011;44475;53.206;-6.106;2023-03-31T15:00:24;10.23;;;2.88;;
58697;SDS011;44475;53.206;-6.106;2023-03-31T15:02:54;12.48;;;2.88;;
58697;SDS011;44475;53.206;-6.106;2023-03-31T15:05:26;8.63;;;2.55;;
58697;SDS011;44475;53.206;-6.106;2023-03-31T15:08:35;11.25;;;2.72;;
58697;SDS011;44475;53.206;-6.106;2023-03-31T15:10:47;15.57;;;2.78;;
58697;SDS011;44475;53.206;-6.106;2023-03-31T15:13:18;15.68;;;3.03;;
58697;SDS011;44475;53.206;-6.106;2023-03-31T15:15:50;15.00;;;3.00;;
58697;SDS011;44475;53.206;-6.106;2023-03-31T15:18:16;10.40;;;2.63;;
58697;SDS011;44475;53.206;-6.106;2023-03-31T15:20:43;20.40;;;3.35;;
58697;SDS011;44475;53.206;-6.106;2023-03-31T15:23:20;13.30;;;3.00;;
58697;SDS011;44475;53.206;-6.106;2023-03-31T15:25:56;14.95;;;2.92;;
58697;SDS011;44475;53.206;-6.106;2023-03-31T15:28:28;15.98;;;2.97;;
58697;SDS011;44475;53.206;-6.106;2023-03-31T15:31:01;14.48;;;3.25;;
58697;SDS011;44475;53.206;-6.106;2023-03-31T15:33:30;17.30;;;3.55;;
58697;SDS011;44475;53.206;-6.106;2023-03-31T15:36:00;11.15;;;3.05;;
58697;SDS011;44475;53.206;-6.106;2023-03-31T15:38:27;11.88;;;2.70;;
58697;SDS011;44475;53.206;-6.106;2023-03-31T15:40:56;14.00;;;2.83;;
58697;SDS011;44475;53.206;-6.106;2023-03-31T15:43:28;12.02;;;2.90;;
58697;SDS011;44475;53.206;-6.106;2023-03-31T15:45:57;18.23;;;3.25;;
58697;SDS011;44475;53.206;-6.106;2023-03-31T15:48:37;8.27;;;2.75;;
58697;SDS011;44475;53.206;-6.106;2023-03-31T15:51:33;10.48;;;2.97;;
58697;SDS011;44475;53.206;-6.106;2023-03-31T15:54:02;14.93;;;3.00;;
58697;SDS011;44475;53.206;-6.106;2023-03-31T15:56:48;15.15;;;3.03;;
58697;SDS011;44475;53.206;-6.106;2023-03-31T16:01:48;11.00;;;2.58;;
58697;SDS011;44475;53.206;-6.106;2023-03-31T16:04:16;13.93;;;2.83;;
58697;SDS011;44475;53.206;-6.106;2023-03-31T16:06:49;11.38;;;2.70;;
58697;SDS011;44475;53.206;-6.106;2023-03-31T16:09:43;8.52;;;2.50;;
58697;SDS011;44475;53.206;-6.106;2023-03-31T16:12:40;10.88;;;2.70;;
58697;SDS011;44475;53.206;-6.106;2023-03-31T16:15:15;11.48;;;3.00;;
58697;SDS011;44475;53.206;-6.106;2023-03-31T16:17:46;9.40;;;2.80;;
58697;SDS011;44475;53.206;-6.106;2023-03-31T16:22:54;8.73;;;2.70;;
58697;SDS011;44475;53.206;-6.106;2023-03-31T16:25:24;7.38;;;2.90;;
58697;SDS011;44475;53.206;-6.106;2023-03-31T16:27:56;12.73;;;2.75;;
58697;SDS011;44475;53.206;-6.106;2023-03-31T16:30:35;9.93;;;2.72;;
58697;SDS011;44475;53.206;-6.106;2023-03-31T16:33:03;7.63;;;2.38;;
58697;SDS011;44475;53.206;-6.106;2023-03-31T16:35:35;12.90;;;2.60;;
58697;SDS011;44475;53.206;-6.106;2023-03-31T16:38:04;8.18;;;2.70;;
58697;SDS011;44475;53.206;-6.106;2023-03-31T16:40:39;7.18;;;2.55;;
58697;SDS011;44475;53.206;-6.106;2023-03-31T16:45:44;7.80;;;2.33;;
58697;SDS011;44475;53.206;-6.106;2023-03-31T16:48:13;7.07;;;2.30;;
58697;SDS011;44475;53.206;-6.106;2023-03-31T16:50:40;7.40;;;2.30;;
58697;SDS011;44475;53.206;-6.106;2023-03-31T16:53:07;8.02;;;2.60;;
58697;SDS011;44475;53.206;-6.106;2023-03-31T16:55:34;9.50;;;2.40;;
58697;SDS011;44475;53.206;-6.106;2023-03-31T16:58:01;14.70;;;2.70;;
58697;SDS011;44475;53.206;-6.106;2023-03-31T17:00:31;7.72;;;2.60;;
58697;SDS011;44475;53.206;-6.106;2023-03-31T17:03:04;10.05;;;2.67;;
58697;SDS011;44475;53.206;-6.106;2023-03-31T17:05:32;10.00;;;2.67;;
58697;SDS011;44475;53.206;-6.106;2023-03-31T17:08:07;6.95;;;2.92;;
58697;SDS011;44475;53.206;-6.106;2023-03-31T17:10:35;9.45;;;2.88;;
58697;SDS011;44475;53.206;-6.106;2023-03-31T17:13:02;17.25;;;2.90;;
58697;SDS011;44475;53.206;-6.106;2023-03-31T17:15:28;15.75;;;3.20;;
58697;SDS011;44475;53.206;-6.106;2023-03-31T17:17:55;17.17;;;3.20;;
58697;SDS011;44475;53.206;-6.106;2023-03-31T17:20:23;15.10;;;3.20;;
58697;SDS011;44475;53.206;-6.106;2023-03-31T17:22:50;26.25;;;3.90;;
58697;SDS011;44475;53.206;-6.106;2023-03-31T17:25:17;19.88;;;4.72;;
58697;SDS011;44475;53.206;-6.106;2023-03-31T17:27:43;27.17;;;4.22;;
58697;SDS011;44475;53.206;-6.106;2023-03-31T17:30:10;34.53;;;4.72;;
58697;SDS011;44475;53.206;-6.106;2023-03-31T17:32:37;38.55;;;5.45;;
58697;SDS011;44475;53.206;-6.106;2023-03-31T17:35:04;49.55;;;6.50;;
58697;SDS011;44475;53.206;-6.106;2023-03-31T17:37:31;42.95;;;5.88;;
58697;SDS011;44475;53.206;-6.106;2023-03-31T17:39:58;37.83;;;6.00;;
58697;SDS011;44475;53.206;-6.106;2023-03-31T17:42:24;40.00;;;5.93;;
58697;SDS011;44475;53.206;-6.106;2023-03-31T17:44:50;43.35;;;6.15;;
58697;SDS011;44475;53.206;-6.106;2023-03-31T17:47:18;45.45;;;5.95;;
58697;SDS011;44475;53.206;-6.106;2023-03-31T17:49:44;51.33;;;5.93;;
58697;SDS011;44475;53.206;-6.106;2023-03-31T17:52:11;36.75;;;5.97;;
58697;SDS011;44475;53.206;-6.106;2023-03-31T17:54:38;38.47;;;5.18;;
58697;SDS011;44475;53.206;-6.106;2023-03-31T17:57:04;41.22;;;6.25;;